Time;durP1;ratioP1;P1;durP2;ratioP2;P2;SDS_P1;SDS_P2;PMS_P1;PMS_P2;Temp;Humidity;BMP_temperature;BMP_pressure;BME280_temperature;BME280_humidity;BME280_pressure;Samples;Min_cycle;Max_cycle;Signal;HPM_P1;HPM_P2
2022/11/01 12:37:45;;;;;;;0.00;0.00;;;;;;;;;;5131113;27;20386;-85
2022/11/01 12:40:14;;;;;;;0.00;0.00;;;;;;;;;;5126117;28;20040;-83
2022/11/01 12:42:41;;;;;;;1.10;1.00;;;;;;;;;;5092115;28;20046;-84
2022/11/01 12:45:15;;;;;;;0.00;0.00;;;;;;;;;;5075438;28;20035;-84
2022/11/01 12:47:48;;;;;;;0.00;0.00;;;;;;;;;;5075249;28;20035;-85
2022/11/01 12:50:29;;;;;;;0.00;0.00;;;;;;;;;;5092053;28;20032;-84
2022/11/01 12:52:59;;;;;;;0.00;0.00;;;;;;;;;;5075085;28;20368;-84
2022/11/01 12:55:25;;;;;;;0.00;0.00;;;;;;;;;;5091802;28;20121;-84
2022/11/01 12:57:51;;;;;;;0.00;0.00;;;;;;;;;;5091224;28;20127;-84
2022/11/01 13:00:18;;;;;;;0.00;0.00;;;;;;;;;;5091814;28;20043;-84
2022/11/01 13:02:47;;;;;;;0.00;0.00;;;;;;;;;;5091532;28;20125;-84
2022/11/01 13:05:21;;;;;;;0.00;0.00;;;;;;;;;;5091757;28;20039;-85
2022/11/01 13:07:47;;;;;;;0.00;0.00;;;;;;;;;;5091436;28;20438;-84
2022/11/01 13:10:22;;;;;;;0.00;0.00;;;;;;;;;;5091631;28;20103;-84
2022/11/01 13:12:51;;;;;;;0.00;0.00;;;;;;;;;;5091910;28;20080;-86
2022/11/01 13:15:23;;;;;;;0.00;0.00;;;;;;;;;;5091868;28;20050;-84
2022/11/01 13:18:08;;;;;;;0.00;0.00;;;;;;;;;;5109937;28;20070;-85
2022/11/01 13:20:40;;;;;;;0.00;0.00;;;;;;;;;;5092018;28;20422;-85
2022/11/01 13:23:11;;;;;;;0.00;0.00;;;;;;;;;;5091789;28;20105;-84
2022/11/01 13:25:40;;;;;;;0.00;0.00;;;;;;;;;;5091601;28;20036;-84
2022/11/01 13:28:13;;;;;;;0.00;0.00;;;;;;;;;;5091405;28;20051;-84
2022/11/01 13:30:43;;;;;;;0.00;0.00;;;;;;;;;;5091460;28;20040;-84
2022/11/01 13:33:26;;;;;;;0.00;0.00;;;;;;;;;;5091454;28;20116;-84
2022/11/01 13:36:05;;;;;;;0.00;0.00;;;;;;;;;;5091464;28;20044;-84
2022/11/01 13:38:35;;;;;;;0.00;0.00;;;;;;;;;;5091155;28;20043;-84
2022/11/01 13:41:07;;;;;;;0.00;0.00;;;;;;;;;;5091328;28;20036;-84
2022/11/01 13:43:36;;;;;;;0.00;0.00;;;;;;;;;;5091208;28;20039;-85
2022/11/01 13:46:05;;;;;;;0.00;0.00;;;;;;;;;;5091380;28;20048;-85
2022/11/01 13:48:50;;;;;;;0.00;0.00;;;;;;;;;;5078623;28;20036;-83
2022/11/01 13:51:34;;;;;;;0.00;0.00;;;;;;;;;;5077663;28;20036;-85
2022/11/01 13:54:17;;;;;;;0.00;0.00;;;;;;;;;;5077444;28;20487;-85
2022/11/01 13:56:55;;;;;;;0.00;0.00;;;;;;;;;;5077760;28;20119;-84
2022/11/01 13:59:47;;;;;;;0.00;0.00;;;;;;;;;;5060872;28;20472;-85
2022/11/01 14:02:22;;;;;;;0.00;0.00;;;;;;;;;;5074096;28;20449;-84
2022/11/01 14:04:58;;;;;;;0.00;0.00;;;;;;;;;;5077330;28;20392;-85
2022/11/01 14:07:25;;;;;;;0.00;0.00;;;;;;;;;;5060838;28;20040;-85
2022/11/01 14:09:52;;;;;;;0.00;0.00;;;;;;;;;;5077458;28;20036;-85
2022/11/01 14:12:37;;;;;;;0.00;0.00;;;;;;;;;;5077225;28;20035;-85
2022/11/01 14:15:09;;;;;;;0.00;0.00;;;;;;;;;;5060518;28;20032;-85
2022/11/01 14:17:35;;;;;;;0.00;0.00;;;;;;;;;;5077338;28;20106;-91
2022/11/01 14:20:05;;;;;;;0.00;0.00;;;;;;;;;;5077424;28;20538;-84
2022/11/01 14:22:32;;;;;;;0.00;0.00;;;;;;;;;;5077131;28;20263;-84
2022/11/01 14:25:11;;;;;;;0.00;0.00;;;;;;;;;;5077085;28;20040;-83
2022/11/01 14:27:38;;;;;;;0.00;0.00;;;;;;;;;;5077014;28;20048;-85
2022/11/01 14:30:14;;;;;;;0.00;0.00;;;;;;;;;;5077057;28;20059;-83
2022/11/01 14:32:41;;;;;;;0.00;0.00;;;;;;;;;;5076874;28;20051;-83
2022/11/01 14:35:14;;;;;;;0.00;0.00;;;;;;;;;;5076467;28;20067;-84
2022/11/01 14:37:46;;;;;;;0.00;0.00;;;;;;;;;;5077029;28;20078;-84
2022/11/01 14:40:18;;;;;;;0.00;0.00;;;;;;;;;;5076678;28;20044;-84
2022/11/01 14:42:45;;;;;;;0.00;0.00;;;;;;;;;;5077046;28;20413;-85
2022/11/01 14:45:37;;;;;;;0.00;0.00;;;;;;;;;;5076247;28;20036;-84
2022/11/01 14:48:25;;;;;;;0.00;0.00;;;;;;;;;;5072969;28;20067;-85
2022/11/01 14:50:59;;;;;;;0.00;0.00;;;;;;;;;;5076729;28;20055;-85
2022/11/01 14:53:28;;;;;;;0.00;0.00;;;;;;;;;;5076891;28;20214;-85
2022/11/01 14:56:24;;;;;;;0.00;0.00;;;;;;;;;;5059730;28;20044;-85
2022/11/01 14:58:50;;;;;;;0.00;0.00;;;;;;;;;;5058586;28;20073;-85
2022/11/01 15:01:18;;;;;;;0.00;0.00;;;;;;;;;;5059598;28;20040;-86
2022/11/01 15:03:54;;;;;;;0.00;0.00;;;;;;;;;;5076199;28;20032;-87
2022/11/01 15:06:22;;;;;;;0.00;0.00;;;;;;;;;;5076158;28;20507;-85
2022/11/01 15:08:48;;;;;;;0.00;0.00;;;;;;;;;;5076285;28;20395;-84
2022/11/01 15:11:15;;;;;;;0.00;0.00;;;;;;;;;;5076226;28;20044;-85
2022/11/01 15:13:43;;;;;;;0.00;0.00;;;;;;;;;;5075835;28;20079;-85
2022/11/01 15:16:22;;;;;;;0.00;0.00;;;;;;;;;;5075916;28;20044;-85
2022/11/01 15:18:51;;;;;;;0.00;0.00;;;;;;;;;;5075932;28;20040;-85
2022/11/01 15:21:21;;;;;;;0.00;0.00;;;;;;;;;;5076159;28;20047;-86
2022/11/01 15:23:49;;;;;;;0.00;0.00;;;;;;;;;;5059100;28;20418;-85
2022/11/01 15:26:16;;;;;;;0.00;0.00;;;;;;;;;;5059457;28;20047;-86
2022/11/01 15:28:44;;;;;;;0.00;0.00;;;;;;;;;;5075842;28;20103;-85
2022/11/01 15:31:10;;;;;;;0.00;0.00;;;;;;;;;;5059178;28;20449;-85
2022/11/01 15:33:37;;;;;;;0.00;0.00;;;;;;;;;;5075722;28;20075;-87
2022/11/01 15:36:20;;;;;;;0.00;0.00;;;;;;;;;;5058423;28;20131;-82
2022/11/01 15:38:53;;;;;;;0.00;0.00;;;;;;;;;;5075633;28;20047;-84
2022/11/01 15:41:26;;;;;;;0.00;0.00;;;;;;;;;;5059183;28;20036;-85
2022/11/01 15:43:53;;;;;;;0.00;0.00;;;;;;;;;;5075600;28;20081;-86
2022/11/01 15:46:19;;;;;;;0.00;0.00;;;;;;;;;;5075541;28;20040;-87
2022/11/01 15:48:45;;;;;;;0.00;0.00;;;;;;;;;;5075376;28;20079;-85
2022/11/01 15:51:19;;;;;;;0.00;0.00;;;;;;;;;;5075231;28;20040;-86
2022/11/01 15:53:45;;;;;;;0.55;0.38;;;;;;;;;;5058869;28;20074;-85
2022/11/01 15:56:17;;;;;;;0.00;0.00;;;;;;;;;;5058157;28;20051;-86
2022/11/01 15:59:01;;;;;;;0.00;0.00;;;;;;;;;;5075307;28;20047;-85
2022/11/01 16:01:27;;;;;;;0.00;0.00;;;;;;;;;;5058526;28;20036;-86
2022/11/01 16:03:56;;;;;;;0.25;0.00;;;;;;;;;;5075170;28;20036;-85
2022/11/01 16:06:25;;;;;;;0.00;0.00;;;;;;;;;;5074895;28;20499;-84
2022/11/01 16:08:54;;;;;;;0.00;0.00;;;;;;;;;;5058273;28;20044;-85
2022/11/01 16:11:21;;;;;;;0.00;0.00;;;;;;;;;;5074657;28;20149;-85
2022/11/01 16:13:52;;;;;;;0.00;0.00;;;;;;;;;;5075114;28;20044;-84
2022/11/01 16:16:18;;;;;;;0.00;0.00;;;;;;;;;;5074969;28;20080;-86
2022/11/01 16:18:45;;;;;;;0.00;0.00;;;;;;;;;;5075213;28;20040;-85
2022/11/01 16:21:20;;;;;;;0.00;0.00;;;;;;;;;;5058069;28;20045;-84
2022/11/01 16:23:50;;;;;;;0.00;0.00;;;;;;;;;;5058319;28;20032;-82
2022/11/01 16:26:16;;;;;;;0.00;0.00;;;;;;;;;;5058193;28;20047;-82
2022/11/01 16:28:45;;;;;;;0.00;0.00;;;;;;;;;;5075046;28;20604;-82
2022/11/01 16:31:18;;;;;;;0.00;0.00;;;;;;;;;;5074726;28;20059;-83
2022/11/01 16:33:44;;;;;;;0.00;0.00;;;;;;;;;;5075289;28;20051;-83
2022/11/01 16:36:20;;;;;;;0.00;0.00;;;;;;;;;;5074449;28;20069;-83
2022/11/01 16:38:47;;;;;;;0.00;0.00;;;;;;;;;;5058151;28;20051;-82
2022/11/01 16:41:23;;;;;;;0.00;0.00;;;;;;;;;;5074573;28;20040;-82
2022/11/01 16:43:53;;;;;;;0.00;0.00;;;;;;;;;;5074977;28;20043;-82
2022/11/01 16:46:25;;;;;;;0.00;0.00;;;;;;;;;;5074597;28;20036;-81
2022/11/01 16:48:51;;;;;;;0.00;0.00;;;;;;;;;;5074726;28;20044;-83
2022/11/01 16:51:18;;;;;;;0.00;0.00;;;;;;;;;;5074827;28;20047;-82
2022/11/01 16:53:44;;;;;;;0.00;0.00;;;;;;;;;;5074872;28;20040;-82
2022/11/01 16:56:18;;;;;;;0.00;0.00;;;;;;;;;;5092539;28;20105;-82
2022/11/01 16:58:44;;;;;;;0.00;0.00;;;;;;;;;;5074768;28;20491;-83
2022/11/01 17:01:21;;;;;;;0.00;0.00;;;;;;;;;;5074414;28;20050;-85
2022/11/01 17:03:48;;;;;;;0.00;0.00;;;;;;;;;;5057832;28;20036;-85
2022/11/01 17:06:14;;;;;;;0.00;0.00;;;;;;;;;;5074337;28;20040;-84
2022/11/01 17:08:41;;;;;;;0.00;0.00;;;;;;;;;;5092722;28;20119;-83
2022/11/01 17:11:12;;;;;;;0.00;0.00;;;;;;;;;;5074471;28;20040;-84
2022/11/01 17:13:38;;;;;;;0.00;0.00;;;;;;;;;;5058208;28;20085;-83
2022/11/01 17:16:05;;;;;;;0.00;0.00;;;;;;;;;;5074463;28;20078;-82
2022/11/01 17:18:36;;;;;;;0.00;0.00;;;;;;;;;;5074573;28;20040;-83
2022/11/01 17:21:05;;;;;;;0.00;0.00;;;;;;;;;;5074581;28;20433;-84
2022/11/01 17:23:32;;;;;;;0.00;0.00;;;;;;;;;;5077012;28;20475;-82
2022/11/01 17:25:59;;;;;;;0.00;0.00;;;;;;;;;;5061415;28;20071;-84
2022/11/01 17:28:25;;;;;;;0.00;0.00;;;;;;;;;;5061556;28;20036;-83
2022/11/01 17:30:51;;;;;;;0.00;0.00;;;;;;;;;;5077923;28;20047;-84
2022/11/01 17:33:19;;;;;;;0.00;0.00;;;;;;;;;;5096397;28;20123;-84
2022/11/01 17:35:45;;;;;;;0.00;0.00;;;;;;;;;;5060824;28;20054;-83
2022/11/01 17:38:13;;;;;;;0.00;0.00;;;;;;;;;;5078394;28;20048;-85
2022/11/01 17:40:41;;;;;;;0.00;0.00;;;;;;;;;;5077717;28;20035;-83
2022/11/01 17:43:13;;;;;;;0.00;0.00;;;;;;;;;;5061185;28;20109;-83
2022/11/01 17:45:39;;;;;;;0.00;0.00;;;;;;;;;;5096150;28;20102;-86
2022/11/01 17:48:06;;;;;;;0.00;0.00;;;;;;;;;;5077456;28;20036;-84
2022/11/01 17:50:32;;;;;;;0.00;0.00;;;;;;;;;;5077499;28;20044;-83
2022/11/01 17:52:58;;;;;;;0.00;0.00;;;;;;;;;;5077756;28;20457;-83
2022/11/01 17:55:24;;;;;;;0.00;0.00;;;;;;;;;;5077313;28;20069;-83
2022/11/01 17:57:50;;;;;;;0.00;0.00;;;;;;;;;;5077674;28;20039;-83
2022/11/01 18:00:16;;;;;;;0.00;0.00;;;;;;;;;;5095607;28;20119;-83
2022/11/01 18:02:43;;;;;;;0.00;0.00;;;;;;;;;;5077687;28;20036;-83
2022/11/01 18:05:09;;;;;;;0.00;0.00;;;;;;;;;;5077527;28;20043;-82
2022/11/01 18:07:36;;;;;;;0.00;0.00;;;;;;;;;;5077169;28;20040;-83
2022/11/01 18:10:05;;;;;;;0.00;0.00;;;;;;;;;;5077569;28;20040;-82
2022/11/01 18:12:38;;;;;;;0.00;0.00;;;;;;;;;;5077298;28;20047;-82
2022/11/01 18:15:13;;;;;;;0.00;0.00;;;;;;;;;;5095672;28;20040;-82
2022/11/01 18:17:52;;;;;;;0.00;0.00;;;;;;;;;;5095271;28;20169;-82
2022/11/01 18:20:35;;;;;;;0.00;0.00;;;;;;;;;;5094451;28;20063;-82
2022/11/01 18:23:03;;;;;;;0.00;0.00;;;;;;;;;;5077267;28;20124;-83
2022/11/01 18:25:36;;;;;;;0.00;0.00;;;;;;;;;;5095662;28;20146;-83
2022/11/01 18:28:11;;;;;;;0.00;0.00;;;;;;;;;;5077070;28;20043;-83
2022/11/01 18:30:37;;;;;;;0.00;0.00;;;;;;;;;;5077186;28;20079;-83
2022/11/01 18:33:06;;;;;;;0.00;0.00;;;;;;;;;;5077028;28;20036;-83
2022/11/01 18:35:34;;;;;;;0.00;0.00;;;;;;;;;;5093770;28;20085;-84
2022/11/01 18:38:19;;;;;;;0.00;0.00;;;;;;;;;;5077125;28;20384;-83
2022/11/01 18:41:01;;;;;;;0.00;0.00;;;;;;;;;;5076721;28;20047;-83
2022/11/01 18:43:36;;;;;;;0.00;0.00;;;;;;;;;;5095351;28;20036;-83
2022/11/01 18:46:03;;;;;;;0.00;0.00;;;;;;;;;;5078901;28;20071;-83
2022/11/01 18:48:29;;;;;;;0.00;0.00;;;;;;;;;;5076947;28;20372;-83
2022/11/01 18:51:04;;;;;;;0.00;0.00;;;;;;;;;;5076522;28;20044;-83
2022/11/01 18:53:31;;;;;;;0.00;0.00;;;;;;;;;;5076935;28;20479;-83
2022/11/01 18:56:13;;;;;;;0.00;0.00;;;;;;;;;;5076359;28;20397;-83
2022/11/01 18:58:40;;;;;;;0.00;0.00;;;;;;;;;;5076922;28;20111;-83
2022/11/01 19:01:19;;;;;;;0.00;0.00;;;;;;;;;;5076691;28;20106;-82
2022/11/01 19:03:45;;;;;;;0.00;0.00;;;;;;;;;;5094637;28;20123;-83
2022/11/01 19:06:19;;;;;;;0.00;0.00;;;;;;;;;;5076346;28;20483;-83
2022/11/01 19:08:51;;;;;;;0.00;0.00;;;;;;;;;;5094876;28;20479;-83
2022/11/01 19:11:17;;;;;;;0.00;0.00;;;;;;;;;;5076407;28;20047;-83
2022/11/01 19:13:43;;;;;;;0.00;0.00;;;;;;;;;;5076322;28;20435;-83
2022/11/01 19:16:10;;;;;;;0.00;0.00;;;;;;;;;;5076020;28;20042;-82
2022/11/01 19:18:37;;;;;;;0.00;0.00;;;;;;;;;;5076317;28;20044;-83
2022/11/01 19:21:03;;;;;;;0.00;0.00;;;;;;;;;;5076226;28;20085;-83
2022/11/01 19:23:40;;;;;;;0.00;0.00;;;;;;;;;;5094388;28;20493;-82
2022/11/01 19:26:26;;;;;;;0.00;0.00;;;;;;;;;;5076098;28;20040;-83
2022/11/01 19:28:52;;;;;;;0.00;0.00;;;;;;;;;;5066150;28;20415;-83
2022/11/01 19:31:37;;;;;;;0.00;0.00;;;;;;;;;;5076044;28;20079;-87
2022/11/01 19:34:05;;;;;;;0.00;0.00;;;;;;;;;;5076278;28;20051;-83
2022/11/01 19:36:38;;;;;;;0.00;0.00;;;;;;;;;;5075258;28;20555;-82
2022/11/01 19:39:16;;;;;;;0.00;0.00;;;;;;;;;;5075568;28;20040;-82
2022/11/01 19:41:43;;;;;;;0.00;0.00;;;;;;;;;;5075388;28;20044;-83
2022/11/01 19:44:16;;;;;;;0.00;0.00;;;;;;;;;;5075571;28;20093;-82
2022/11/01 19:46:42;;;;;;;0.00;0.00;;;;;;;;;;5074845;28;20048;-82
2022/11/01 19:49:18;;;;;;;0.00;0.00;;;;;;;;;;5075565;28;20070;-82
2022/11/01 19:51:44;;;;;;;0.00;0.00;;;;;;;;;;5075475;28;20085;-82
2022/11/01 19:54:11;;;;;;;0.00;0.00;;;;;;;;;;5075537;28;20597;-85
2022/11/01 19:56:37;;;;;;;0.00;0.00;;;;;;;;;;5075045;28;20047;-82
2022/11/01 19:59:10;;;;;;;0.00;0.00;;;;;;;;;;5075331;28;20044;-82
2022/11/01 20:01:40;;;;;;;0.00;0.00;;;;;;;;;;5075153;28;20118;-81
2022/11/01 20:04:09;;;;;;;0.00;0.00;;;;;;;;;;5075575;28;20058;-82
2022/11/01 20:06:37;;;;;;;0.00;0.00;;;;;;;;;;5093334;28;20040;-81
2022/11/01 20:09:03;;;;;;;0.00;0.00;;;;;;;;;;5075378;28;20122;-81
2022/11/01 20:11:30;;;;;;;0.00;0.00;;;;;;;;;;5075536;28;20048;-82
2022/11/01 20:13:56;;;;;;;0.00;0.00;;;;;;;;;;5074868;28;20044;-82
2022/11/01 20:16:22;;;;;;;0.00;0.00;;;;;;;;;;5093346;28;20400;-82
2022/11/01 20:18:48;;;;;;;0.00;0.00;;;;;;;;;;5074773;28;20051;-83
2022/11/01 20:21:14;;;;;;;0.00;0.00;;;;;;;;;;5075214;28;20044;-83
2022/11/01 20:23:40;;;;;;;0.00;0.00;;;;;;;;;;5075007;28;20044;-83
2022/11/01 20:26:06;;;;;;;0.00;0.00;;;;;;;;;;5075234;28;20067;-82
2022/11/01 20:28:32;;;;;;;0.00;0.00;;;;;;;;;;5091557;28;20047;-82
2022/11/01 20:30:58;;;;;;;0.00;0.00;;;;;;;;;;5075027;28;20461;-83
2022/11/01 20:33:24;;;;;;;0.00;0.00;;;;;;;;;;5074648;28;20491;-83
2022/11/01 20:35:51;;;;;;;0.00;0.00;;;;;;;;;;5074826;28;20140;-83
2022/11/01 20:38:17;;;;;;;0.00;0.00;;;;;;;;;;5092862;28;20047;-83
2022/11/01 20:40:43;;;;;;;0.00;0.00;;;;;;;;;;5075162;28;20040;-83
2022/11/01 20:43:09;;;;;;;0.00;0.00;;;;;;;;;;5075219;28;20097;-82
2022/11/01 20:45:35;;;;;;;0.00;0.00;;;;;;;;;;5074885;28;20047;-82
2022/11/01 20:48:02;;;;;;;0.00;0.00;;;;;;;;;;5074663;28;20052;-81
2022/11/01 20:50:28;;;;;;;0.00;0.00;;;;;;;;;;5074644;28;20100;-82
2022/11/01 20:52:54;;;;;;;0.00;0.00;;;;;;;;;;5074619;28;20051;-82
2022/11/01 20:55:20;;;;;;;0.00;0.00;;;;;;;;;;5074866;28;20048;-82
2022/11/01 20:57:46;;;;;;;0.00;0.00;;;;;;;;;;5075957;28;20414;-82
2022/11/01 21:00:14;;;;;;;0.00;0.00;;;;;;;;;;5096979;28;20085;-83
2022/11/01 21:02:40;;;;;;;0.00;0.00;;;;;;;;;;5078409;28;20398;-82
2022/11/01 21:05:07;;;;;;;0.00;0.00;;;;;;;;;;5078598;28;20075;-83
2022/11/01 21:07:33;;;;;;;0.00;0.00;;;;;;;;;;5096864;28;20046;-82
2022/11/01 21:09:59;;;;;;;0.00;0.00;;;;;;;;;;5078496;28;20109;-82
2022/11/01 21:12:28;;;;;;;0.00;0.00;;;;;;;;;;5078274;28;20036;-82
2022/11/01 21:14:54;;;;;;;0.00;0.00;;;;;;;;;;5078805;28;20102;-82
2022/11/01 21:17:20;;;;;;;0.00;0.00;;;;;;;;;;5078226;28;20147;-82
2022/11/01 21:19:52;;;;;;;0.00;0.00;;;;;;;;;;5078765;28;20223;-82
2022/11/01 21:22:20;;;;;;;0.00;0.00;;;;;;;;;;5078628;28;20040;-83
2022/11/01 21:24:47;;;;;;;0.00;0.00;;;;;;;;;;5078523;28;20119;-87
2022/11/01 21:27:16;;;;;;;0.00;0.00;;;;;;;;;;5078548;28;20039;-83
2022/11/01 21:29:46;;;;;;;0.00;0.00;;;;;;;;;;5077919;28;20048;-81
2022/11/01 21:32:38;;;;;;;0.00;0.00;;;;;;;;;;5078555;28;20044;-82
2022/11/01 21:35:19;;;;;;;0.00;0.00;;;;;;;;;;5089212;28;20056;-82
2022/11/01 21:37:52;;;;;;;0.00;0.00;;;;;;;;;;5078107;28;20051;-82
2022/11/01 21:40:29;;;;;;;0.00;0.00;;;;;;;;;;5078060;28;20476;-82
2022/11/01 21:42:56;;;;;;;0.00;0.00;;;;;;;;;;5077746;28;20566;-82
2022/11/01 21:45:22;;;;;;;0.00;0.00;;;;;;;;;;5077992;28;20036;-82
2022/11/01 21:47:48;;;;;;;0.00;0.00;;;;;;;;;;5077584;28;20440;-82
2022/11/01 21:50:14;;;;;;;0.00;0.00;;;;;;;;;;5077200;28;20032;-83
2022/11/01 21:52:40;;;;;;;0.00;0.00;;;;;;;;;;5077737;28;20040;-83
2022/11/01 21:55:06;;;;;;;0.00;0.00;;;;;;;;;;5078262;28;20036;-84
2022/11/01 21:57:32;;;;;;;0.20;0.10;;;;;;;;;;5077826;28;20032;-89
2022/11/01 21:59:58;;;;;;;0.00;0.00;;;;;;;;;;5077935;28;20184;-82
2022/11/01 22:02:24;;;;;;;0.00;0.00;;;;;;;;;;5077842;28;20036;-85
2022/11/01 22:04:50;;;;;;;0.00;0.00;;;;;;;;;;5077579;28;20047;-83
2022/11/01 22:07:16;;;;;;;0.00;0.00;;;;;;;;;;5077393;28;20036;-82
2022/11/01 22:09:42;;;;;;;0.00;0.00;;;;;;;;;;5077007;28;20079;-82
2022/11/01 22:12:08;;;;;;;0.00;0.00;;;;;;;;;;5077539;28;20048;-83
2022/11/01 22:14:34;;;;;;;0.00;0.00;;;;;;;;;;5077421;28;20098;-82
2022/11/01 22:17:01;;;;;;;0.00;0.00;;;;;;;;;;5077374;28;20044;-81
2022/11/01 22:19:27;;;;;;;0.00;0.00;;;;;;;;;;5077096;28;20044;-81
2022/11/01 22:21:53;;;;;;;0.00;0.00;;;;;;;;;;5095323;28;20040;-82
2022/11/01 22:24:19;;;;;;;0.00;0.00;;;;;;;;;;5077174;28;20089;-82
2022/11/01 22:26:45;;;;;;;0.00;0.00;;;;;;;;;;5077519;28;20126;-82
2022/11/01 22:29:11;;;;;;;0.00;0.00;;;;;;;;;;5076811;28;20556;-82
2022/11/01 22:31:37;;;;;;;0.00;0.00;;;;;;;;;;5077133;28;20044;-82
2022/11/01 22:34:03;;;;;;;0.00;0.00;;;;;;;;;;5093891;28;20085;-82
2022/11/01 22:36:30;;;;;;;0.00;0.00;;;;;;;;;;5076833;28;20044;-82
2022/11/01 22:38:57;;;;;;;0.00;0.00;;;;;;;;;;5076675;28;20047;-82
2022/11/01 22:41:26;;;;;;;0.00;0.00;;;;;;;;;;5076910;28;20059;-82
2022/11/01 22:43:53;;;;;;;0.00;0.00;;;;;;;;;;5076870;28;20044;-82
2022/11/01 22:46:19;;;;;;;0.00;0.00;;;;;;;;;;5076897;28;20483;-82
2022/11/01 22:48:45;;;;;;;0.00;0.00;;;;;;;;;;5076493;28;20048;-83
2022/11/01 22:51:20;;;;;;;0.00;0.00;;;;;;;;;;5076914;28;20048;-82
2022/11/01 22:53:46;;;;;;;0.00;0.00;;;;;;;;;;5076656;28;20044;-82
2022/11/01 22:56:12;;;;;;;0.00;0.00;;;;;;;;;;5076499;28;20127;-82
2022/11/01 22:58:38;;;;;;;0.00;0.00;;;;;;;;;;5076613;28;20032;-82
2022/11/01 23:01:23;;;;;;;0.00;0.00;;;;;;;;;;5076451;28;20507;-82
2022/11/01 23:03:50;;;;;;;0.00;0.00;;;;;;;;;;5076348;28;20040;-82
2022/11/01 23:06:28;;;;;;;0.00;0.00;;;;;;;;;;5076230;28;20048;-82
2022/11/01 23:08:55;;;;;;;0.00;0.00;;;;;;;;;;5094086;28;20067;-82
2022/11/01 23:14:36;;;;;;;0.00;0.00;;;;;;;;;;5109825;28;20044;-81
2022/11/01 23:17:03;;;;;;;;;;;;;;;;;;5076337;28;20407;-81
2022/11/01 23:19:29;;;;;;;0.00;0.00;;;;;;;;;;5093642;28;19916;-82
2022/11/01 23:21:55;;;;;;;0.00;0.00;;;;;;;;;;5075663;28;20036;-82
2022/11/01 23:24:22;;;;;;;0.00;0.00;;;;;;;;;;5075633;28;20115;-82
2022/11/01 23:26:48;;;;;;;0.00;0.00;;;;;;;;;;5076150;28;20134;-82
2022/11/01 23:29:14;;;;;;;0.00;0.00;;;;;;;;;;5075614;28;20071;-82
2022/11/01 23:31:40;;;;;;;0.00;0.00;;;;;;;;;;5094192;28;20437;-82
2022/11/01 23:34:08;;;;;;;0.00;0.00;;;;;;;;;;5075627;28;20040;-82
2022/11/01 23:36:36;;;;;;;0.00;0.00;;;;;;;;;;5075409;28;20056;-82
2022/11/01 23:39:02;;;;;;;0.20;0.10;;;;;;;;;;5075665;28;20489;-82
2022/11/01 23:41:36;;;;;;;0.00;0.00;;;;;;;;;;5075990;28;20044;-82
2022/11/01 23:44:06;;;;;;;0.00;0.00;;;;;;;;;;5075447;28;20143;-82
2022/11/01 23:46:32;;;;;;;0.00;0.00;;;;;;;;;;5076184;28;20046;-82
2022/11/01 23:49:02;;;;;;;0.00;0.00;;;;;;;;;;5075088;28;20048;-82
2022/11/01 23:51:30;;;;;;;0.00;0.00;;;;;;;;;;5075393;28;20048;-82
2022/11/01 23:53:56;;;;;;;0.00;0.00;;;;;;;;;;5075271;28;20051;-81
2022/11/01 23:56:22;;;;;;;0.00;0.00;;;;;;;;;;5075396;28;20032;-82
2022/11/01 23:58:53;;;;;;;0.00;0.00;;;;;;;;;;5075213;28;20093;-82
